Time;durP1;ratioP1;P1;durP2;ratioP2;P2;SDS_P1;SDS_P2;PMS_P1;PMS_P2;Temp;Humidity;BMP_temperature;BMP_pressure;BME280_temperature;BME280_humidity;BME280_pressure;Samples;Min_cycle;Max_cycle;Signal;HPM_P1;HPM_P2
2023/05/21 00:01:32;;;;;;;1.90;1.55;;;16.80;99.90;;;;;;4954528;28;20690;-66
2023/05/21 00:04:00;;;;;;;1.55;1.45;;;16.80;99.90;;;;;;4970959;28;20210;-65
2023/05/21 00:06:28;;;;;;;1.55;1.35;;;16.80;99.90;;;;;;4969672;28;20711;-66
2023/05/21 00:08:57;;;;;;;0.82;0.82;;;16.80;99.90;;;;;;4965294;28;20266;-66
2023/05/21 00:11:25;;;;;;;1.38;1.27;;;16.80;99.90;;;;;;4973345;28;20207;-66
2023/05/21 00:13:53;;;;;;;2.05;1.95;;;16.80;99.90;;;;;;4972943;28;20266;-65
2023/05/21 00:16:21;;;;;;;1.58;1.33;;;16.80;99.90;;;;;;4973303;28;20202;-66
2023/05/21 00:18:49;;;;;;;1.33;1.23;;;16.80;99.90;;;;;;4973181;28;20875;-66
2023/05/21 00:21:21;;;;;;;1.10;1.05;;;16.80;99.90;;;;;;4973623;28;20214;-66
2023/05/21 00:23:49;;;;;;;1.70;1.60;;;16.80;99.90;;;;;;4972548;28;20206;-66
2023/05/21 00:26:18;;;;;;;2.08;1.80;;;16.80;99.90;;;;;;4972771;28;20234;-65
2023/05/21 00:28:46;;;;;;;2.40;1.95;;;16.70;99.90;;;;;;4973173;28;20221;-67
2023/05/21 00:31:14;;;;;;;2.05;1.50;;;16.70;99.90;;;;;;4973057;28;20569;-66
2023/05/21 00:33:42;;;;;;;1.45;1.35;;;16.70;99.90;;;;;;4972919;28;20203;-66
2023/05/21 00:36:13;;;;;;;1.85;1.65;;;16.70;99.90;;;;;;4970131;28;20210;-66
2023/05/21 00:38:42;;;;;;;2.08;1.33;;;16.70;99.90;;;;;;4953845;28;20223;-66
2023/05/21 00:41:10;;;;;;;1.67;1.58;;;16.70;99.90;;;;;;4972948;28;20206;-65
2023/05/21 00:43:40;;;;;;;1.08;1.00;;;16.70;99.90;;;;;;4972385;28;20618;-67
2023/05/21 00:46:12;;;;;;;1.98;1.80;;;16.70;99.90;;;;;;4965638;28;20721;-65
2023/05/21 00:48:40;;;;;;;1.15;1.05;;;16.70;99.90;;;;;;4972644;28;20713;-65
2023/05/21 00:51:08;;;;;;;0.73;0.73;;;16.70;99.90;;;;;;4972602;28;20265;-65
2023/05/21 00:53:37;;;;;;;1.95;1.35;;;16.70;99.90;;;;;;4972587;28;20205;-66
2023/05/21 00:56:06;;;;;;;0.90;0.90;;;16.70;99.90;;;;;;4964891;28;20225;-66
2023/05/21 00:58:34;;;;;;;2.13;1.50;;;16.70;99.90;;;;;;4972630;28;20250;-67
2023/05/21 01:01:05;;;;;;;1.70;1.40;;;16.70;99.90;;;;;;4964727;28;20289;-67
2023/05/21 01:03:37;;;;;;;1.30;1.17;;;16.70;99.90;;;;;;4972502;28;20211;-67
2023/05/21 01:06:06;;;;;;;1.17;1.10;;;16.70;99.90;;;;;;4961466;28;20214;-66
2023/05/21 01:08:35;;;;;;;1.83;1.67;;;16.70;99.90;;;;;;4953195;28;20231;-65
2023/05/21 01:11:04;;;;;;;1.60;1.50;;;16.70;99.90;;;;;;4972258;28;20206;-66
2023/05/21 01:13:35;;;;;;;1.55;1.45;;;16.70;99.90;;;;;;4972351;28;20218;-67
2023/05/21 01:16:07;;;;;;;1.10;1.00;;;16.70;99.90;;;;;;4972213;28;20210;-67
2023/05/21 01:18:36;;;;;;;1.30;1.10;;;16.70;99.90;;;;;;4972159;28;20218;-66
2023/05/21 01:21:06;;;;;;;3.25;1.88;;;16.70;99.90;;;;;;4964622;28;20214;-67
2023/05/21 01:23:35;;;;;;;1.77;1.30;;;16.70;99.90;;;;;;4971983;28;20297;-67
2023/05/21 01:26:03;;;;;;;2.50;2.15;;;16.70;99.90;;;;;;4972184;28;20206;-66
2023/05/21 01:28:33;;;;;;;1.25;1.15;;;16.70;99.90;;;;;;4972059;28;20244;-64
2023/05/21 01:31:11;;;;;;;0.80;0.80;;;16.70;99.90;;;;;;4971990;28;20688;-64
2023/05/21 01:34:03;;;;;;;4.32;2.78;;;16.70;99.90;;;;;;4965587;28;20210;-65
2023/05/21 01:36:39;;;;;;;1.40;1.30;;;16.70;99.90;;;;;;4942315;28;20211;-69
2023/05/21 01:39:16;;;;;;;1.60;1.50;;;16.70;99.90;;;;;;4948422;28;20258;-69
2023/05/21 01:41:47;;;;;;;1.77;1.67;;;16.80;99.90;;;;;;4950434;28;20570;-69
2023/05/21 01:44:18;;;;;;;2.22;1.90;;;16.70;99.90;;;;;;4947709;28;20710;-72
2023/05/21 01:46:46;;;;;;;1.30;1.20;;;16.80;99.90;;;;;;4948745;28;20207;-71
2023/05/21 01:49:25;;;;;;;1.92;1.60;;;16.80;99.90;;;;;;4949311;28;20254;-71
2023/05/21 01:52:03;;;;;;;2.97;1.75;;;16.80;99.90;;;;;;4950041;28;20592;-71
2023/05/21 01:54:33;;;;;;;1.70;1.60;;;16.80;99.90;;;;;;4949847;28;20245;-71
2023/05/21 01:57:00;;;;;;;1.42;1.25;;;16.80;99.90;;;;;;4950714;28;20210;-71
2023/05/21 01:59:28;;;;;;;2.78;1.00;;;16.80;99.90;;;;;;4948280;28;20207;-71
2023/05/21 02:01:56;;;;;;;2.47;1.73;;;16.90;99.90;;;;;;4950235;28;20218;-70
2023/05/21 02:04:24;;;;;;;1.13;0.98;;;16.90;99.90;;;;;;4947326;28;20305;-71
2023/05/21 02:06:53;;;;;;;1.55;1.45;;;16.90;99.90;;;;;;4944111;28;20215;-71
2023/05/21 02:09:21;;;;;;;2.03;1.23;;;16.90;99.90;;;;;;4947225;28;20674;-71
2023/05/21 02:11:50;;;;;;;1.02;0.93;;;16.90;99.90;;;;;;4950195;28;20208;-71
2023/05/21 02:14:19;;;;;;;1.45;1.35;;;16.90;99.90;;;;;;4948670;28;20231;-71
2023/05/21 02:16:47;;;;;;;1.10;1.00;;;16.90;99.90;;;;;;4949209;28;20203;-73
2023/05/21 02:19:15;;;;;;;0.88;0.75;;;17.00;99.90;;;;;;4948213;28;20203;-71
2023/05/21 02:21:43;;;;;;;2.95;1.98;;;16.90;99.90;;;;;;4948835;28;20879;-72
2023/05/21 02:24:11;;;;;;;1.73;1.15;;;17.00;99.90;;;;;;4948898;28;20234;-73
2023/05/21 02:26:39;;;;;;;2.38;2.17;;;16.90;99.90;;;;;;4947608;28;20211;-71
2023/05/21 02:29:08;;;;;;;1.23;0.90;;;17.00;99.90;;;;;;4947370;28;20224;-72
2023/05/21 02:31:36;;;;;;;1.63;1.10;;;17.00;99.90;;;;;;4947671;28;20207;-73
2023/05/21 02:34:04;;;;;;;2.55;1.90;;;17.00;99.90;;;;;;4949957;28;20243;-73
2023/05/21 02:36:32;;;;;;;1.90;1.75;;;17.00;99.90;;;;;;4943854;28;20626;-72
2023/05/21 02:39:00;;;;;;;1.80;1.70;;;17.00;99.90;;;;;;4942312;28;20211;-71
2023/05/21 02:41:28;;;;;;;1.83;1.73;;;17.00;99.90;;;;;;4944794;28;20218;-71
2023/05/21 02:43:56;;;;;;;1.35;1.25;;;17.00;99.90;;;;;;4948558;28;20682;-71
2023/05/21 02:46:25;;;;;;;1.17;1.08;;;17.00;99.90;;;;;;4948868;28;20710;-71
2023/05/21 02:48:53;;;;;;;1.90;1.35;;;17.10;99.90;;;;;;4950116;28;20235;-70
2023/05/21 02:51:21;;;;;;;1.85;1.15;;;17.10;99.90;;;;;;4953122;28;20262;-70
2023/05/21 02:53:49;;;;;;;0.95;0.95;;;17.10;99.90;;;;;;4950534;28;20207;-71
2023/05/21 02:56:17;;;;;;;1.65;1.50;;;17.10;99.90;;;;;;4953235;28;20733;-70
2023/05/21 02:58:45;;;;;;;0.80;0.80;;;17.10;99.90;;;;;;4952602;28;20203;-70
2023/05/21 03:01:13;;;;;;;1.08;0.95;;;17.10;99.90;;;;;;4953007;28;20218;-70
2023/05/21 03:03:42;;;;;;;1.45;1.35;;;17.10;99.90;;;;;;4948844;28;20215;-70
2023/05/21 03:06:10;;;;;;;2.08;1.75;;;17.10;99.90;;;;;;4951764;28;20638;-70
2023/05/21 03:08:38;;;;;;;2.38;1.42;;;17.10;99.90;;;;;;4949818;28;20645;-70
2023/05/21 03:11:06;;;;;;;1.23;1.13;;;17.10;99.90;;;;;;4948246;28;20257;-70
2023/05/21 03:13:34;;;;;;;2.00;1.60;;;17.10;99.90;;;;;;4950644;28;20266;-72
2023/05/21 03:16:02;;;;;;;3.03;2.20;;;17.10;99.90;;;;;;4951728;28;20593;-72
2023/05/21 03:18:30;;;;;;;1.60;1.50;;;17.20;99.90;;;;;;4951653;28;20226;-71
2023/05/21 03:21:00;;;;;;;1.50;1.40;;;17.10;99.90;;;;;;4950218;28;20718;-71
2023/05/21 03:23:28;;;;;;;1.10;0.90;;;17.20;99.90;;;;;;4947163;28;20210;-71
2023/05/21 03:25:56;;;;;;;1.45;1.05;;;17.20;99.90;;;;;;4951063;28;20610;-70
2023/05/21 03:28:24;;;;;;;1.77;1.60;;;17.20;99.90;;;;;;4950383;28;20753;-69
2023/05/21 03:30:53;;;;;;;1.17;1.08;;;17.10;99.90;;;;;;4953716;28;20219;-70
2023/05/21 03:33:22;;;;;;;0.75;0.73;;;17.10;99.90;;;;;;4950421;28;20230;-70
2023/05/21 03:35:50;;;;;;;2.03;1.38;;;17.20;99.90;;;;;;4948153;28;20713;-70
2023/05/21 03:38:19;;;;;;;1.85;1.30;;;17.10;99.90;;;;;;4944552;28;20212;-70
2023/05/21 03:40:47;;;;;;;2.33;2.20;;;17.10;99.90;;;;;;4950018;28;20627;-70
2023/05/21 03:43:15;;;;;;;2.00;1.80;;;17.20;99.90;;;;;;4950279;28;20207;-71
2023/05/21 03:45:43;;;;;;;1.25;1.15;;;17.10;99.90;;;;;;4948302;28;20238;-70
2023/05/21 03:48:11;;;;;;;2.05;1.10;;;17.20;99.90;;;;;;4950800;28;20289;-71
2023/05/21 03:50:40;;;;;;;1.88;1.33;;;17.20;99.90;;;;;;4949687;28;20218;-70
2023/05/21 03:53:09;;;;;;;1.45;1.35;;;17.20;99.90;;;;;;4949193;28;20258;-70
2023/05/21 03:55:38;;;;;;;1.20;1.10;;;17.20;99.90;;;;;;4947691;28;21013;-71
2023/05/21 03:58:06;;;;;;;1.30;1.20;;;17.20;99.90;;;;;;4953148;28;20210;-72
2023/05/21 04:00:36;;;;;;;1.30;1.20;;;17.20;99.90;;;;;;4946281;28;20215;-71
2023/05/21 04:03:05;;;;;;;0.82;0.70;;;17.20;99.90;;;;;;4950154;28;20207;-71
2023/05/21 04:05:34;;;;;;;0.90;0.90;;;17.20;99.90;;;;;;4950419;28;20227;-72
2023/05/21 04:08:02;;;;;;;1.40;1.30;;;17.30;99.90;;;;;;4947295;28;20230;-72
2023/05/21 04:10:30;;;;;;;1.60;1.50;;;17.30;99.90;;;;;;4951840;28;20211;-71
2023/05/21 04:12:59;;;;;;;1.15;1.05;;;17.20;99.90;;;;;;4951279;28;20698;-72
2023/05/21 04:15:27;;;;;;;1.55;1.45;;;17.20;99.90;;;;;;4944330;28;20279;-70
2023/05/21 04:17:55;;;;;;;0.77;0.77;;;17.20;99.90;;;;;;4951094;28;20238;-70
2023/05/21 04:20:23;;;;;;;1.45;1.35;;;17.20;99.90;;;;;;4951872;28;20199;-70
2023/05/21 04:22:51;;;;;;;2.00;1.48;;;17.20;99.90;;;;;;4948576;28;20223;-71
2023/05/21 04:25:20;;;;;;;3.13;1.38;;;17.30;99.90;;;;;;4949478;28;20584;-71
2023/05/21 04:27:48;;;;;;;1.02;1.02;;;17.20;99.90;;;;;;4950405;28;20222;-70
2023/05/21 04:30:18;;;;;;;1.25;1.15;;;17.20;99.90;;;;;;4949009;28;20664;-71
2023/05/21 04:32:46;;;;;;;1.77;1.52;;;17.20;99.90;;;;;;4949317;28;20222;-71
2023/05/21 04:35:15;;;;;;;1.00;0.90;;;17.20;99.90;;;;;;4946779;28;20706;-70
2023/05/21 04:37:44;;;;;;;2.13;1.65;;;17.30;99.90;;;;;;4946249;28;20288;-71
2023/05/21 04:40:16;;;;;;;1.88;1.67;;;17.30;99.90;;;;;;4949650;28;20663;-71
2023/05/21 04:42:45;;;;;;;2.80;1.50;;;17.30;99.90;;;;;;4952542;28;20211;-71
2023/05/21 04:45:13;;;;;;;2.08;1.90;;;17.40;99.90;;;;;;4951126;28;20226;-71
2023/05/21 04:47:43;;;;;;;1.75;1.63;;;17.40;99.90;;;;;;4950075;28;20774;-72
2023/05/21 04:50:11;;;;;;;1.92;1.73;;;17.40;99.90;;;;;;4948732;28;20941;-74
2023/05/21 04:52:40;;;;;;;2.08;1.00;;;17.40;99.90;;;;;;4945136;28;20203;-72
2023/05/21 04:55:08;;;;;;;0.95;0.90;;;17.50;99.90;;;;;;4947085;28;20778;-73
2023/05/21 04:57:36;;;;;;;1.40;1.23;;;17.50;99.90;;;;;;4949329;28;20214;-72
2023/05/21 05:00:06;;;;;;;0.75;0.75;;;17.50;99.90;;;;;;4948796;28;20203;-73
2023/05/21 05:02:34;;;;;;;2.67;2.47;;;17.60;99.90;;;;;;4948844;28;20703;-72
2023/05/21 05:05:03;;;;;;;1.05;0.90;;;17.60;99.90;;;;;;4950018;28;20310;-72
2023/05/21 05:07:31;;;;;;;1.02;1.00;;;17.70;99.90;;;;;;4948256;28;20578;-72
2023/05/21 05:09:59;;;;;;;1.77;1.17;;;17.70;99.90;;;;;;4951924;28;20224;-73
2023/05/21 05:12:27;;;;;;;1.13;1.02;;;17.80;99.90;;;;;;4952479;28;20209;-72
2023/05/21 05:14:55;;;;;;;3.20;1.27;;;17.80;99.90;;;;;;4951225;28;20254;-71
2023/05/21 05:17:23;;;;;;;1.10;0.93;;;17.80;99.90;;;;;;4949275;28;20203;-72
2023/05/21 05:19:51;;;;;;;1.35;1.25;;;17.90;99.90;;;;;;4947973;28;20212;-73
2023/05/21 05:22:21;;;;;;;2.20;1.55;;;18.00;99.90;;;;;;4949221;28;20207;-74
2023/05/21 05:24:49;;;;;;;1.88;1.77;;;18.00;99.90;;;;;;4950323;28;20227;-74
2023/05/21 05:27:17;;;;;;;1.13;1.02;;;18.10;99.90;;;;;;4947042;28;20947;-71
2023/05/21 05:29:46;;;;;;;1.23;1.13;;;18.10;99.90;;;;;;4952419;28;20636;-71
2023/05/21 05:32:14;;;;;;;1.35;1.25;;;18.20;99.90;;;;;;4952898;28;20615;-72
2023/05/21 05:34:42;;;;;;;1.70;1.10;;;18.30;99.90;;;;;;4952397;28;20243;-72
2023/05/21 05:37:10;;;;;;;1.52;1.42;;;18.30;99.90;;;;;;4952525;28;20211;-72
2023/05/21 05:39:39;;;;;;;1.30;0.82;;;18.40;99.90;;;;;;4944605;28;20210;-71
2023/05/21 05:42:08;;;;;;;1.50;1.40;;;18.60;99.90;;;;;;4944696;28;20217;-70
2023/05/21 05:44:36;;;;;;;1.15;1.00;;;18.60;99.90;;;;;;4949763;28;20231;-71
2023/05/21 05:47:07;;;;;;;1.92;1.33;;;18.70;99.90;;;;;;4950405;28;20613;-73
2023/05/21 05:49:35;;;;;;;1.45;1.35;;;18.80;99.90;;;;;;4943525;28;20706;-72
2023/05/21 05:52:04;;;;;;;1.08;0.90;;;18.90;99.90;;;;;;4941378;28;20207;-72
2023/05/21 05:54:33;;;;;;;1.55;1.45;;;18.90;99.90;;;;;;4943516;28;20262;-72
2023/05/21 05:57:02;;;;;;;1.30;1.20;;;19.00;99.90;;;;;;4945497;28;20223;-71
2023/05/21 05:59:32;;;;;;;1.08;1.00;;;19.00;99.90;;;;;;4946929;28;20203;-71
2023/05/21 06:02:00;;;;;;;0.88;0.88;;;19.00;99.90;;;;;;4942901;28;20286;-71
2023/05/21 06:04:28;;;;;;;1.98;1.25;;;19.10;99.90;;;;;;4949170;28;20219;-71
2023/05/21 06:06:57;;;;;;;1.38;1.27;;;19.10;99.90;;;;;;4948659;28;20298;-72
2023/05/21 06:09:25;;;;;;;1.55;1.27;;;19.20;99.90;;;;;;4944942;28;20241;-71
2023/05/21 06:11:53;;;;;;;1.23;1.13;;;19.30;99.90;;;;;;4940209;28;20320;-71
2023/05/21 06:14:22;;;;;;;1.15;1.08;;;19.30;99.90;;;;;;4943855;28;20323;-72
2023/05/21 06:16:50;;;;;;;1.10;1.00;;;19.30;99.90;;;;;;4945643;28;20678;-72
2023/05/21 06:19:18;;;;;;;1.60;1.50;;;19.30;99.90;;;;;;4949003;28;20212;-72
2023/05/21 06:21:47;;;;;;;1.33;1.23;;;19.30;99.90;;;;;;4948399;28;20273;-71
2023/05/21 06:24:15;;;;;;;1.70;1.17;;;19.20;99.90;;;;;;4951969;28;20228;-71
2023/05/21 06:26:43;;;;;;;1.17;1.08;;;19.20;99.90;;;;;;4951720;28;20216;-71
2023/05/21 06:29:11;;;;;;;2.45;1.55;;;19.20;99.90;;;;;;4954326;28;20215;-70
2023/05/21 06:31:43;;;;;;;1.00;0.90;;;19.20;99.90;;;;;;4952906;28;20324;-70
2023/05/21 06:34:11;;;;;;;1.50;1.40;;;19.20;99.90;;;;;;4952945;28;20234;-75
2023/05/21 06:36:39;;;;;;;1.25;1.15;;;19.20;99.90;;;;;;4955225;28;20215;-72
2023/05/21 06:39:07;;;;;;;1.13;1.02;;;19.20;99.90;;;;;;4953390;28;20203;-72
2023/05/21 06:41:35;;;;;;;2.17;1.98;;;19.30;99.90;;;;;;4952838;28;20203;-73
2023/05/21 06:44:04;;;;;;;0.90;0.90;;;19.40;99.90;;;;;;4950911;28;20235;-71
2023/05/21 06:46:32;;;;;;;1.67;1.33;;;19.40;99.90;;;;;;4952894;28;20671;-72
2023/05/21 06:49:02;;;;;;;1.33;1.20;;;19.40;99.90;;;;;;4951145;28;20226;-74
2023/05/21 06:51:30;;;;;;;1.17;1.00;;;19.40;99.90;;;;;;4953692;28;20364;-72
2023/05/21 06:53:58;;;;;;;1.10;1.00;;;19.40;99.90;;;;;;4954368;28;20215;-72
2023/05/21 06:56:26;;;;;;;1.50;1.40;;;19.30;99.90;;;;;;4953018;28;20225;-72
2023/05/21 06:58:54;;;;;;;0.75;0.75;;;19.30;99.90;;;;;;4951977;28;20216;-71
2023/05/21 07:01:22;;;;;;;1.63;1.20;;;19.30;99.90;;;;;;4954453;28;20215;-73
2023/05/21 07:03:50;;;;;;;1.73;1.55;;;19.40;99.90;;;;;;4951300;28;20224;-72
2023/05/21 07:06:19;;;;;;;1.30;1.17;;;19.30;99.90;;;;;;4953977;28;20204;-71
2023/05/21 07:08:48;;;;;;;1.85;1.75;;;19.30;99.90;;;;;;4949495;28;20220;-72
2023/05/21 07:11:16;;;;;;;1.40;1.30;;;19.30;99.90;;;;;;4955167;28;20689;-73
2023/05/21 07:13:44;;;;;;;1.70;1.60;;;19.40;99.90;;;;;;4948678;28;20211;-70
2023/05/21 07:16:12;;;;;;;4.05;1.25;;;19.40;99.90;;;;;;4950229;28;20208;-70
2023/05/21 07:18:40;;;;;;;0.80;0.80;;;19.40;99.90;;;;;;4950864;28;20214;-69
2023/05/21 07:21:08;;;;;;;1.02;1.00;;;19.40;99.90;;;;;;4949483;28;20259;-70
2023/05/21 07:23:37;;;;;;;1.50;1.40;;;19.50;99.90;;;;;;4949633;28;20203;-72
2023/05/21 07:26:05;;;;;;;1.00;1.00;;;19.60;99.90;;;;;;4952679;28;20215;-71
2023/05/21 07:28:33;;;;;;;1.73;1.63;;;19.80;99.90;;;;;;4946097;28;21835;-72
2023/05/21 07:31:01;;;;;;;1.75;1.02;;;19.90;99.90;;;;;;4951675;28;20227;-71
2023/05/21 07:33:29;;;;;;;1.55;1.45;;;20.10;99.90;;;;;;4951879;28;20287;-69
2023/05/21 07:35:57;;;;;;;1.00;1.00;;;20.20;99.90;;;;;;4950236;28;20243;-70
2023/05/21 07:38:25;;;;;;;1.77;1.67;;;20.30;99.90;;;;;;4952658;28;20225;-70
2023/05/21 07:40:55;;;;;;;1.42;1.33;;;20.40;99.90;;;;;;4947262;28;20218;-71
2023/05/21 07:43:23;;;;;;;1.10;1.00;;;20.40;99.90;;;;;;4949291;28;20211;-71
2023/05/21 07:45:51;;;;;;;1.75;1.65;;;20.50;99.90;;;;;;4950239;28;20235;-72
2023/05/21 07:48:19;;;;;;;1.35;1.25;;;20.60;99.90;;;;;;4949376;28;20204;-74
2023/05/21 07:50:48;;;;;;;1.98;1.52;;;20.80;99.90;;;;;;4946496;28;20767;-72
2023/05/21 07:53:16;;;;;;;1.20;1.10;;;21.00;99.90;;;;;;4948140;28;20214;-73
2023/05/21 07:55:46;;;;;;;1.48;1.38;;;21.20;99.90;;;;;;4945352;28;20699;-73
2023/05/21 07:58:17;;;;;;;1.42;1.33;;;21.40;99.90;;;;;;4988366;23;20328;-65
2023/05/21 08:00:47;;;;;;;1.40;1.30;;;21.60;99.90;;;;;;4984165;28;20217;-65
2023/05/21 08:03:16;;;;;;;1.55;1.45;;;21.60;99.90;;;;;;4989147;28;20219;-65
2023/05/21 08:05:47;;;;;;;1.27;1.13;;;21.60;99.90;;;;;;4981744;28;20243;-66
2023/05/21 08:08:16;;;;;;;0.80;0.80;;;21.60;99.90;;;;;;4986296;28;20701;-65
2023/05/21 08:10:44;;;;;;;1.08;0.90;;;21.70;99.90;;;;;;4986033;28;20218;-65
2023/05/21 08:13:12;;;;;;;1.00;0.90;;;21.80;99.90;;;;;;4987264;28;20261;-65
2023/05/21 08:15:41;;;;;;;1.33;1.23;;;22.00;99.90;;;;;;4986841;28;20207;-65
2023/05/21 08:18:10;;;;;;;0.95;0.85;;;22.20;99.90;;;;;;4979715;28;20227;-65
2023/05/21 08:20:38;;;;;;;1.77;1.20;;;22.50;99.90;;;;;;4986527;28;20214;-65
2023/05/21 08:23:06;;;;;;;1.15;0.90;;;22.80;99.90;;;;;;4986203;28;20211;-66
2023/05/21 08:25:34;;;;;;;1.00;0.90;;;22.90;99.90;;;;;;4986135;28;20199;-65
2023/05/21 08:28:03;;;;;;;1.10;1.02;;;22.90;99.90;;;;;;4988216;28;20226;-66
2023/05/21 08:30:31;;;;;;;1.42;1.33;;;22.80;99.90;;;;;;4989294;28;20239;-65
2023/05/21 08:33:01;;;;;;;0.70;0.68;;;22.80;99.90;;;;;;4989987;28;20210;-65
2023/05/21 08:35:29;;;;;;;3.20;1.88;;;22.80;99.90;;;;;;4984927;28;20215;-65
2023/05/21 08:37:57;;;;;;;2.20;2.00;;;22.80;99.90;;;;;;4988699;28;20231;-65
2023/05/21 08:40:25;;;;;;;2.45;2.25;;;22.90;99.90;;;;;;4986694;28;20223;-65
2023/05/21 08:42:53;;;;;;;1.38;1.27;;;23.10;99.90;;;;;;4989332;28;20211;-65
2023/05/21 08:45:22;;;;;;;2.40;1.70;;;23.30;99.90;;;;;;4984970;28;20212;-65
2023/05/21 08:47:58;;;;;;;1.42;1.15;;;23.40;99.90;;;;;;4982018;28;20752;-65
2023/05/21 08:50:28;;;;;;;2.33;1.83;;;23.50;99.90;;;;;;4987835;28;20221;-66
2023/05/21 08:52:57;;;;;;;1.40;1.00;;;23.40;99.90;;;;;;4989151;28;20250;-65
2023/05/21 08:55:25;;;;;;;1.70;1.40;;;23.50;99.90;;;;;;4988758;28;20213;-66
2023/05/21 08:57:54;;;;;;;1.42;1.33;;;23.30;99.90;;;;;;4988904;28;20729;-65
2023/05/21 09:00:23;;;;;;;1.00;1.00;;;23.50;99.90;;;;;;4986419;28;20211;-66
2023/05/21 09:02:53;;;;;;;1.50;1.40;;;23.60;99.90;;;;;;4988274;28;20212;-65
2023/05/21 09:05:22;;;;;;;1.25;1.15;;;23.80;99.90;;;;;;4987058;28;20249;-66
2023/05/21 09:08:00;;;;;;;1.13;1.02;;;23.80;99.90;;;;;;4987951;28;20235;-66
2023/05/21 09:10:35;;;;;;;1.25;1.15;;;24.10;99.90;;;;;;4987513;28;20210;-65
2023/05/21 09:13:03;;;;;;;6.30;1.50;;;24.10;99.90;;;;;;4990130;28;20232;-65
2023/05/21 09:15:31;;;;;;;1.50;1.40;;;24.40;99.90;;;;;;4986126;28;20678;-66
2023/05/21 09:17:59;;;;;;;1.70;1.60;;;24.40;99.90;;;;;;4985928;28;20287;-65
2023/05/21 09:20:28;;;;;;;1.55;1.45;;;24.50;99.90;;;;;;4986108;28;20208;-66
2023/05/21 09:23:02;;;;;;;1.73;1.25;;;24.40;99.90;;;;;;4988165;28;20268;-65
2023/05/21 09:25:31;;;;;;;0.90;0.80;;;24.30;99.90;;;;;;4986337;28;20427;-65
2023/05/21 09:27:59;;;;;;;1.30;1.20;;;24.20;99.90;;;;;;4988439;28;20227;-66
2023/05/21 09:30:28;;;;;;;1.30;1.20;;;23.90;99.90;;;;;;4985629;28;20213;-66
2023/05/21 09:33:00;;;;;;;1.63;1.52;;;23.70;99.90;;;;;;4984984;28;20298;-65
2023/05/21 09:35:28;;;;;;;1.95;1.60;;;23.60;99.90;;;;;;4985134;28;20212;-65
2023/05/21 09:37:57;;;;;;;1.38;1.27;;;23.60;99.90;;;;;;4987230;28;20682;-66
2023/05/21 09:40:25;;;;;;;1.23;1.13;;;23.70;99.90;;;;;;4985360;28;20219;-65
2023/05/21 09:42:54;;;;;;;1.65;1.50;;;23.80;99.90;;;;;;4987728;28;20668;-65
2023/05/21 09:45:24;;;;;;;1.35;1.17;;;23.70;99.90;;;;;;4985076;28;20216;-65
2023/05/21 09:47:53;;;;;;;1.92;1.83;;;23.50;99.90;;;;;;4986348;28;20236;-66
2023/05/21 09:50:23;;;;;;;2.45;2.17;;;23.60;99.90;;;;;;4986540;28;20218;-65
2023/05/21 09:52:51;;;;;;;1.58;1.48;;;23.90;99.90;;;;;;4984826;28;20235;-66
2023/05/21 09:55:23;;;;;;;1.33;1.23;;;24.10;99.90;;;;;;4987005;28;20287;-65
2023/05/21 09:57:51;;;;;;;0.95;0.80;;;24.20;99.90;;;;;;4986385;28;20904;-64
2023/05/21 10:00:21;;;;;;;2.67;1.98;;;24.30;99.90;;;;;;4986907;28;20218;-66
2023/05/21 10:02:50;;;;;;;1.20;1.10;;;24.50;99.90;;;;;;4985536;28;20213;-65
2023/05/21 10:05:18;;;;;;;1.33;1.23;;;24.90;99.90;;;;;;4987080;28;20209;-65
2023/05/21 10:07:50;;;;;;;1.27;1.17;;;25.20;99.90;;;;;;4988565;28;20241;-66
2023/05/21 10:10:21;;;;;;;1.40;1.30;;;25.60;99.90;;;;;;4986910;28;20262;-65
2023/05/21 10:12:55;;;;;;;2.28;1.75;;;25.90;99.90;;;;;;4985779;28;20251;-65
2023/05/21 10:15:24;;;;;;;1.80;1.67;;;26.10;99.90;;;;;;4984700;28;20208;-65
2023/05/21 10:17:55;;;;;;;1.00;0.90;;;26.20;99.90;;;;;;4989177;28;20235;-65
2023/05/21 10:20:23;;;;;;;1.75;1.20;;;26.20;99.90;;;;;;4985400;28;20248;-65
2023/05/21 10:22:51;;;;;;;2.30;1.73;;;26.40;99.90;;;;;;4987483;28;20213;-65
2023/05/21 10:25:22;;;;;;;1.75;1.65;;;26.60;99.90;;;;;;4988008;28;20694;-65
2023/05/21 10:27:51;;;;;;;1.20;1.10;;;26.70;99.90;;;;;;4973431;28;20279;-65
2023/05/21 10:30:21;;;;;;;1.60;1.27;;;26.90;99.90;;;;;;4975924;28;20674;-66
2023/05/21 10:32:50;;;;;;;1.05;0.93;;;26.90;99.90;;;;;;4974901;28;20223;-65
2023/05/21 10:35:18;;;;;;;2.15;1.35;;;27.00;99.90;;;;;;4977045;28;20217;-64
2023/05/21 10:37:47;;;;;;;1.15;1.08;;;27.00;99.90;;;;;;4980667;28;20241;-66
2023/05/21 10:40:15;;;;;;;3.63;1.58;;;27.20;99.90;;;;;;4976625;28;20203;-65
2023/05/21 10:43:21;;;;;;;1.17;0.95;;;27.20;99.90;;;;;;4980629;28;20202;-64
2023/05/21 10:46:11;;;;;;;2.88;1.30;;;27.10;99.90;;;;;;4956281;28;20226;-65
2023/05/21 10:49:00;;;;;;;1.45;1.35;;;27.20;99.90;;;;;;4983571;28;20344;-65
2023/05/21 10:51:35;;;;;;;1.13;1.00;;;26.90;99.90;;;;;;4976939;28;20285;-65
2023/05/21 10:54:31;;;;;;;1.38;1.23;;;26.90;99.90;;;;;;4973821;28;20677;-65
2023/05/21 10:57:09;;;;;;;1.92;1.83;;;26.90;99.90;;;;;;4975495;28;20550;-65
2023/05/21 10:59:43;;;;;;;1.35;1.25;;;27.10;99.90;;;;;;4983754;28;20779;-65
2023/05/21 11:02:14;;;;;;;1.20;1.10;;;27.10;99.90;;;;;;4990514;28;20197;-66
2023/05/21 11:04:44;;;;;;;1.73;1.33;;;27.20;99.90;;;;;;4973894;28;20206;-64
2023/05/21 11:07:13;;;;;;;1.58;1.30;;;27.40;99.90;;;;;;4977323;28;20213;-66
2023/05/21 11:09:40;;;;;;;1.63;1.00;;;27.30;99.90;;;;;;4986715;28;20607;-64
2023/05/21 11:12:09;;;;;;;0.95;0.80;;;27.20;99.90;;;;;;4984477;28;20661;-65
2023/05/21 11:14:38;;;;;;;1.55;1.45;;;27.30;99.90;;;;;;4986574;28;20256;-66
2023/05/21 11:17:16;;;;;;;2.58;1.90;;;27.30;99.90;;;;;;4983470;28;20213;-65
2023/05/21 11:19:46;;;;;;;1.88;1.40;;;27.00;99.90;;;;;;4986716;28;20241;-65
2023/05/21 11:22:24;;;;;;;1.40;1.30;;;27.10;99.90;;;;;;4989604;28;20720;-66
2023/05/21 11:24:53;;;;;;;1.45;1.35;;;26.70;99.90;;;;;;4985766;28;20217;-66
2023/05/21 11:27:32;;;;;;;3.30;1.85;;;26.80;99.90;;;;;;4989719;28;20319;-65
2023/05/21 11:30:04;;;;;;;1.60;1.20;;;27.00;99.90;;;;;;4987711;28;20202;-65
2023/05/21 11:32:37;;;;;;;1.42;1.23;;;27.30;99.90;;;;;;4988077;28;20221;-66
2023/05/21 11:35:06;;;;;;;1.30;1.20;;;27.40;99.90;;;;;;4988520;28;20228;-65
2023/05/21 11:37:36;;;;;;;1.30;1.10;;;27.50;99.90;;;;;;4987557;28;20201;-66
2023/05/21 11:40:18;;;;;;;1.75;1.65;;;27.80;99.90;;;;;;4987287;28;20210;-66
2023/05/21 11:42:50;;;;;;;1.40;1.30;;;28.20;99.90;;;;;;4987304;28;20280;-66
2023/05/21 11:45:19;;;;;;;1.10;0.90;;;28.50;99.90;;;;;;4987260;28;20634;-66
2023/05/21 11:47:49;;;;;;;1.20;1.10;;;28.50;99.90;;;;;;4988287;28;20225;-67
2023/05/21 11:50:18;;;;;;;1.60;1.50;;;28.10;99.90;;;;;;4988801;28;20222;-67
2023/05/21 11:52:46;;;;;;;1.85;1.20;;;28.00;99.90;;;;;;4989147;28;20276;-66
2023/05/21 11:55:15;;;;;;;1.60;1.05;;;28.10;99.90;;;;;;4987241;28;20202;-66
2023/05/21 11:57:46;;;;;;;1.58;1.48;;;28.20;99.90;;;;;;4987819;28;20242;-67
2023/05/21 12:00:16;;;;;;;1.45;1.35;;;28.30;99.90;;;;;;4987024;28;20561;-66
2023/05/21 12:02:46;;;;;;;0.90;0.90;;;28.10;99.90;;;;;;4986404;28;20225;-67
2023/05/21 12:05:15;;;;;;;1.48;1.38;;;28.20;99.90;;;;;;4989053;28;20212;-66
2023/05/21 12:07:48;;;;;;;1.52;1.42;;;28.00;99.90;;;;;;4989847;28;20235;-66
2023/05/21 12:10:16;;;;;;;1.83;1.70;;;28.20;99.90;;;;;;4987877;28;21771;-66
2023/05/21 12:12:44;;;;;;;1.10;1.00;;;28.30;99.90;;;;;;4989189;28;20699;-67
2023/05/21 12:15:23;;;;;;;1.15;1.15;;;28.30;99.90;;;;;;4986000;28;20285;-67
2023/05/21 12:17:52;;;;;;;1.65;1.33;;;28.40;99.90;;;;;;4989380;28;20235;-66
2023/05/21 12:20:22;;;;;;;1.30;1.10;;;28.60;99.90;;;;;;4986635;28;20202;-66
2023/05/21 12:22:50;;;;;;;2.70;0.90;;;28.50;99.90;;;;;;4990720;28;20203;-66
2023/05/21 12:25:19;;;;;;;2.58;1.00;;;28.90;99.90;;;;;;4985757;28;20207;-67
2023/05/21 12:27:49;;;;;;;1.25;0.88;;;28.90;99.20;;;;;;4989393;28;20226;-66
2023/05/21 12:30:17;;;;;;;1.33;1.20;;;29.10;98.20;;;;;;4987273;28;20218;-66
2023/05/21 12:32:45;;;;;;;1.20;1.10;;;29.10;97.00;;;;;;4989211;28;20205;-67
2023/05/21 12:35:24;;;;;;;1.50;1.40;;;29.30;97.30;;;;;;4986834;28;20214;-66
2023/05/21 12:37:53;;;;;;;1.15;1.05;;;29.30;97.30;;;;;;4987590;28;20324;-66
2023/05/21 12:40:21;;;;;;;1.25;1.15;;;29.30;97.30;;;;;;4987408;28;20202;-66
2023/05/21 12:42:50;;;;;;;1.17;1.08;;;29.50;96.40;;;;;;4982104;28;20217;-66
2023/05/21 12:45:19;;;;;;;1.50;1.40;;;29.60;96.80;;;;;;4986523;28;20632;-66
2023/05/21 12:47:54;;;;;;;0.95;0.90;;;29.70;95.70;;;;;;4987600;28;20237;-66
2023/05/21 12:50:24;;;;;;;1.50;1.40;;;30.00;96.00;;;;;;4987374;28;20281;-66
2023/05/21 12:52:55;;;;;;;1.48;1.38;;;29.70;95.50;;;;;;4989771;28;20216;-66
2023/05/21 12:55:25;;;;;;;1.50;1.10;;;29.30;96.00;;;;;;4987374;28;20208;-66
2023/05/21 12:58:03;;;;;;;1.70;1.15;;;29.10;96.20;;;;;;4987166;28;20243;-66
2023/05/21 13:00:32;;;;;;;1.55;1.40;;;29.20;96.00;;;;;;4986729;28;20686;-66